Buckskin, Indiana
Current Conditions -  °F | °C
As of 10:54 AM on Friday 24 Oct 2014 (Local Time) from KEVV Reporting Station
Scattered Clouds Scattered Clouds  
Wind Chill: 59°   Ceiling: Unl
Heat Index: 59°   Visibility: 10mi
Dew Point: 47°   Wind: 0mph
Humidity: 64%   Direction: NA
Pressure: 30.13"   Gusts: NA
Location:  38.23°N, 87.41°W
Report Text: KEVV 241554Z 00000KT 10SM SCT038 15/08 A3013 RMK AO2 SLP203 T01500083 $
Loading
Personal Weather Stations






























Interactive Weather Map
Tropical Storm Tracking
New forecast layout! Learn more

10-Day Weather Forecast

Advertisements
Track Severe Weather on mobile